Aviation Digital Data Service (ADDS)

Output produced by METARs form (1842 UTC 27 August 2016)
found at http://aviationweather.gov/adds/metars/
 
KAEX 271753Z 10009KT 10SM CLR 32/22 A2997 RMK AO2 LTG DSNT SW SLP149 T03220222 10322 20233 $